Time;durP1;ratioP1;P1;durP2;ratioP2;P2;SDS_P1;SDS_P2;PMS_P1;PMS_P2;Temp;Humidity;BMP_temperature;BMP_pressure;BME280_temperature;BME280_humidity;BME280_pressure;Samples;Min_cycle;Max_cycle;Signal;HPM_P1;HPM_P2
2021/01/03 00:00:30;;;;;;;6.73;5.17;;;21.80;52.30;;;;;;5095016;28;20408;-68
2021/01/03 00:02:57;;;;;;;5.73;5.13;;;21.80;52.40;;;;;;5093466;28;20190;-68
2021/01/03 00:05:29;;;;;;;6.17;5.60;;;21.80;52.30;;;;;;5095042;28;20403;-68
2021/01/03 00:07:56;;;;;;;6.30;5.70;;;21.80;52.40;;;;;;5094750;28;20504;-68
2021/01/03 00:10:22;;;;;;;5.47;4.97;;;21.80;52.40;;;;;;5094626;28;20424;-68
2021/01/03 00:12:48;;;;;;;6.03;4.90;;;21.80;52.40;;;;;;5094763;28;20420;-68
2021/01/03 00:15:17;;;;;;;6.00;5.40;;;21.80;52.30;;;;;;5094676;28;20415;-68
2021/01/03 00:17:43;;;;;;;6.13;5.40;;;21.80;52.30;;;;;;5094490;28;20822;-68
2021/01/03 00:20:17;;;;;;;5.67;5.17;;;21.80;52.30;;;;;;5094847;28;20414;-68
2021/01/03 00:22:42;;;;;;;5.30;4.90;;;21.80;52.30;;;;;;5094669;28;20384;-68
2021/01/03 00:25:09;;;;;;;6.37;4.83;;;21.80;52.30;;;;;;5094521;28;20399;-67
2021/01/03 00:27:36;;;;;;;7.87;5.13;;;21.70;52.30;;;;;;5094425;28;20246;-68
2021/01/03 00:30:07;;;;;;;5.30;5.00;;;21.70;52.30;;;;;;5094630;28;20457;-68
2021/01/03 00:32:32;;;;;;;5.27;4.87;;;21.80;52.30;;;;;;5094355;28;20415;-68
2021/01/03 00:34:59;;;;;;;5.50;4.77;;;21.70;52.30;;;;;;5094584;28;20404;-68
2021/01/03 00:37:25;;;;;;;5.93;5.30;;;21.70;52.30;;;;;;5094416;28;20247;-68
2021/01/03 00:39:51;;;;;;;6.30;5.13;;;21.70;52.40;;;;;;5094190;28;20799;-68
2021/01/03 00:42:17;;;;;;;6.47;5.43;;;21.70;52.30;;;;;;5094347;28;20177;-69
2021/01/03 00:44:42;;;;;;;4.93;4.47;;;21.70;52.30;;;;;;5094108;28;20165;-68
2021/01/03 00:47:09;;;;;;;5.37;4.97;;;21.70;52.30;;;;;;5093938;28;20438;-68
2021/01/03 00:49:35;;;;;;;5.90;5.30;;;21.70;52.30;;;;;;5094320;28;20202;-67
2021/01/03 00:52:01;;;;;;;6.17;5.40;;;21.70;52.30;;;;;;5093961;28;20475;-68
2021/01/03 00:54:26;;;;;;;5.63;4.80;;;21.70;52.30;;;;;;5093988;28;20629;-68
2021/01/03 00:56:52;;;;;;;4.93;4.53;;;21.70;52.30;;;;;;5093857;28;20583;-68
2021/01/03 00:59:17;;;;;;;5.40;4.90;;;21.70;52.20;;;;;;5093744;28;20281;-68
2021/01/03 01:01:43;;;;;;;5.80;5.30;;;21.70;52.20;;;;;;5093820;28;20181;-67
2021/01/03 01:04:09;;;;;;;5.20;4.77;;;21.70;52.30;;;;;;5093759;28;20173;-68
2021/01/03 01:06:34;;;;;;;6.73;6.03;;;21.70;52.30;;;;;;5093701;28;20186;-68
2021/01/03 01:09:00;;;;;;;5.17;4.77;;;21.70;52.30;;;;;;5093837;28;20188;-68
2021/01/03 01:11:28;;;;;;;5.17;4.73;;;21.70;52.30;;;;;;5093971;28;20188;-68
2021/01/03 01:13:54;;;;;;;5.23;4.60;;;21.70;52.30;;;;;;5093627;28;20439;-69
2021/01/03 01:16:19;;;;;;;5.63;5.13;;;21.60;52.20;;;;;;5093538;28;20807;-68
2021/01/03 01:18:45;;;;;;;5.33;4.47;;;21.60;52.80;;;;;;5093703;28;20288;-68
2021/01/03 01:21:11;;;;;;;5.27;4.87;;;21.70;52.30;;;;;;5093912;28;20197;-69
2021/01/03 01:23:36;;;;;;;5.07;4.57;;;21.60;52.20;;;;;;5093506;28;20166;-68
2021/01/03 01:26:02;;;;;;;5.27;4.77;;;21.60;52.20;;;;;;5092198;28;20173;-68
2021/01/03 01:28:28;;;;;;;5.57;5.03;;;21.60;52.20;;;;;;5093334;28;20233;-68
2021/01/03 01:30:54;;;;;;;5.47;4.97;;;21.60;52.20;;;;;;5093401;28;20193;-68
2021/01/03 01:33:20;;;;;;;5.63;5.10;;;21.60;52.30;;;;;;5093353;28;20412;-68
2021/01/03 01:35:46;;;;;;;5.07;4.63;;;21.60;52.30;;;;;;5092525;28;20177;-68
2021/01/03 01:38:12;;;;;;;5.60;5.10;;;21.60;52.30;;;;;;5093124;28;20458;-68
2021/01/03 01:40:40;;;;;;;4.87;4.47;;;21.60;52.30;;;;;;5093547;28;20408;-68
2021/01/03 01:43:08;;;;;;;4.37;4.07;;;21.60;52.30;;;;;;5093154;28;20408;-68
2021/01/03 01:45:37;;;;;;;5.23;4.80;;;21.60;52.30;;;;;;5093224;28;20399;-68
2021/01/03 01:48:15;;;;;;;4.67;4.23;;;21.60;52.30;;;;;;5093084;28;20415;-68
2021/01/03 01:50:45;;;;;;;5.93;4.93;;;21.60;52.30;;;;;;5093257;28;20478;-68
2021/01/03 01:53:30;;;;;;;4.77;4.40;;;21.60;52.30;;;;;;5093064;28;20410;-68
2021/01/03 01:56:22;;;;;;;4.90;4.50;;;21.60;52.30;;;;;;5093376;28;20750;-68
2021/01/03 01:59:09;;;;;;;4.50;4.10;;;21.60;52.20;;;;;;5089984;28;20508;-68
2021/01/03 02:01:51;;;;;;;4.77;4.37;;;21.60;52.40;;;;;;5093378;28;20909;-68
2021/01/03 02:04:29;;;;;;;5.10;4.60;;;21.60;52.30;;;;;;5093298;28;20435;-68
2021/01/03 02:07:24;;;;;;;4.80;4.40;;;21.60;52.30;;;;;;5093019;28;20492;-68
2021/01/03 02:09:54;;;;;;;5.03;4.60;;;21.60;52.30;;;;;;5093013;28;20427;-68
2021/01/03 02:12:26;;;;;;;5.20;4.80;;;21.60;52.30;;;;;;5092939;28;20426;-68
2021/01/03 02:14:52;;;;;;;4.40;4.00;;;21.60;52.30;;;;;;5093163;28;20392;-68
2021/01/03 02:17:18;;;;;;;5.57;5.17;;;21.60;52.30;;;;;;5092961;28;20812;-68
2021/01/03 02:19:44;;;;;;;5.43;4.80;;;21.60;52.30;;;;;;5092888;28;20458;-67
2021/01/03 02:22:26;;;;;;;5.20;4.37;;;21.60;52.30;;;;;;5092976;28;20173;-68
2021/01/03 02:25:07;;;;;;;4.57;4.00;;;21.60;52.30;;;;;;5092848;28;20531;-69
2021/01/03 02:28:01;;;;;;;4.37;3.97;;;21.60;52.90;;;;;;5092835;28;20534;-68
2021/01/03 02:30:28;;;;;;;4.00;3.70;;;21.60;52.90;;;;;;5092705;28;20905;-68
2021/01/03 02:33:16;;;;;;;6.30;4.70;;;21.50;52.30;;;;;;5092794;28;20894;-68
2021/01/03 02:35:43;;;;;;;5.53;3.80;;;21.60;52.30;;;;;;5092715;28;20423;-68
2021/01/03 02:38:08;;;;;;;5.40;4.43;;;21.50;52.30;;;;;;5092491;28;20962;-68
2021/01/03 02:40:35;;;;;;;5.10;4.60;;;21.60;52.40;;;;;;5092652;28;20415;-68
2021/01/03 02:43:00;;;;;;;4.80;4.40;;;21.60;52.40;;;;;;5092597;28;20170;-68
2021/01/03 02:45:30;;;;;;;4.30;3.90;;;21.60;52.40;;;;;;5092604;28;20416;-68
2021/01/03 02:48:17;;;;;;;4.23;3.93;;;21.60;52.40;;;;;;5096127;28;20197;-68
2021/01/03 02:50:43;;;;;;;4.60;4.20;;;21.60;52.30;;;;;;5096636;28;20406;-68
2021/01/03 02:53:08;;;;;;;5.73;4.10;;;21.60;52.40;;;;;;5096242;28;20902;-68
2021/01/03 02:55:34;;;;;;;4.43;4.00;;;21.60;52.40;;;;;;5096508;28;20296;-68
2021/01/03 02:58:00;;;;;;;5.23;4.13;;;21.50;52.30;;;;;;5096328;28;20330;-68
2021/01/03 03:00:32;;;;;;;4.03;3.70;;;21.60;52.40;;;;;;5096146;28;20173;-68
2021/01/03 03:02:59;;;;;;;5.10;4.13;;;21.60;52.30;;;;;;5096118;28;20177;-68
2021/01/03 03:05:24;;;;;;;4.50;4.10;;;21.60;52.30;;;;;;5096043;28;20483;-68
2021/01/03 03:07:51;;;;;;;3.80;3.50;;;21.60;52.30;;;;;;5096760;28;20559;-69
2021/01/03 03:10:18;;;;;;;4.67;4.27;;;21.60;52.30;;;;;;5095831;28;20436;-67
2021/01/03 03:12:57;;;;;;;4.57;4.20;;;21.60;52.30;;;;;;5094624;28;20484;-68
2021/01/03 03:15:24;;;;;;;4.33;3.93;;;21.60;52.30;;;;;;5095812;28;20496;-68
2021/01/03 03:17:50;;;;;;;4.83;3.90;;;21.60;52.30;;;;;;5095705;28;20880;-67
2021/01/03 03:20:17;;;;;;;3.93;3.60;;;21.60;52.30;;;;;;5095829;28;20424;-67
2021/01/03 03:22:44;;;;;;;4.10;3.80;;;21.60;52.30;;;;;;5095735;28;20201;-67
2021/01/03 03:25:10;;;;;;;4.27;3.87;;;21.50;52.30;;;;;;5095934;28;20414;-68
2021/01/03 03:27:36;;;;;;;4.23;3.83;;;21.50;52.20;;;;;;5096098;28;20515;-68
2021/01/03 03:30:04;;;;;;;5.30;4.90;;;21.50;52.80;;;;;;5095570;28;20411;-68
2021/01/03 03:32:30;;;;;;;4.57;4.10;;;21.50;52.20;;;;;;5095877;28;20433;-68
2021/01/03 03:34:55;;;;;;;4.67;4.27;;;21.50;52.20;;;;;;5095735;28;20419;-68
2021/01/03 03:37:21;;;;;;;4.80;4.40;;;21.50;52.20;;;;;;5095308;28;20197;-68
2021/01/03 03:39:47;;;;;;;4.17;3.80;;;21.50;52.80;;;;;;5095418;28;20166;-67
2021/01/03 03:42:12;;;;;;;4.03;3.73;;;21.50;52.30;;;;;;5095548;28;20219;-69
2021/01/03 03:44:38;;;;;;;4.10;3.80;;;21.50;52.30;;;;;;5095294;28;20518;-68
2021/01/03 03:47:04;;;;;;;4.47;3.97;;;21.50;52.30;;;;;;5095412;28;20193;-68
2021/01/03 03:49:31;;;;;;;4.13;3.53;;;21.50;52.20;;;;;;5095253;28;20517;-68
2021/01/03 03:52:01;;;;;;;4.77;4.20;;;21.50;52.30;;;;;;5095255;28;20407;-68
2021/01/03 03:54:27;;;;;;;4.00;3.60;;;21.50;52.30;;;;;;5095394;28;20998;-67
2021/01/03 03:56:56;;;;;;;3.80;3.50;;;21.50;52.30;;;;;;5094989;28;20825;-68
2021/01/03 03:59:22;;;;;;;3.80;3.50;;;21.50;52.30;;;;;;5094148;28;20477;-66
2021/01/03 04:01:48;;;;;;;4.20;3.90;;;21.50;52.90;;;;;;5094985;28;20844;-68
2021/01/03 04:04:14;;;;;;;5.03;4.63;;;21.50;52.30;;;;;;5095163;28;20446;-68
2021/01/03 04:06:40;;;;;;;4.20;3.80;;;21.50;52.30;;;;;;5094694;28;20664;-68
2021/01/03 04:09:06;;;;;;;4.17;3.67;;;21.50;52.30;;;;;;5094878;28;20481;-68
2021/01/03 04:11:32;;;;;;;4.33;4.03;;;21.50;52.40;;;;;;5094631;28;20173;-67
2021/01/03 04:13:58;;;;;;;3.70;3.40;;;21.50;52.30;;;;;;5094687;28;20427;-68
2021/01/03 04:16:24;;;;;;;4.03;3.73;;;21.50;52.30;;;;;;5094569;28;20412;-68
2021/01/03 04:18:49;;;;;;;4.30;3.90;;;21.50;52.30;;;;;;5094562;28;20451;-68
2021/01/03 04:21:15;;;;;;;3.80;3.50;;;21.50;52.30;;;;;;5094648;28;20177;-68
2021/01/03 04:23:41;;;;;;;3.83;3.53;;;21.50;52.30;;;;;;5094505;28;20166;-68
2021/01/03 04:26:08;;;;;;;4.17;3.77;;;21.50;52.30;;;;;;5094600;28;20169;-68
2021/01/03 04:28:33;;;;;;;4.30;3.90;;;21.50;52.40;;;;;;5093091;28;20184;-68
2021/01/03 04:30:59;;;;;;;3.93;3.63;;;21.50;52.40;;;;;;5094596;28;20403;-68
2021/01/03 04:33:25;;;;;;;3.53;3.27;;;21.50;52.30;;;;;;5094587;28;20173;-69
2021/01/03 04:35:51;;;;;;;4.50;3.97;;;21.50;52.30;;;;;;5094331;28;20198;-68
2021/01/03 04:38:17;;;;;;;3.83;3.43;;;21.50;52.30;;;;;;5094043;28;20308;-68
2021/01/03 04:40:42;;;;;;;4.00;3.70;;;21.50;52.40;;;;;;5094714;28;20495;-68
2021/01/03 04:43:14;;;;;;;4.20;3.80;;;21.50;52.40;;;;;;5094149;28;20170;-68
2021/01/03 04:45:44;;;;;;;3.70;3.30;;;21.50;52.30;;;;;;5094131;28;20165;-68
2021/01/03 04:48:31;;;;;;;3.93;3.63;;;21.50;52.30;;;;;;5094303;28;20427;-68
2021/01/03 04:51:09;;;;;;;3.50;3.20;;;21.50;52.30;;;;;;5094262;28;20407;-68
2021/01/03 04:53:34;;;;;;;4.13;3.83;;;21.50;52.30;;;;;;5094294;28;20412;-68
2021/01/03 04:56:23;;;;;;;3.70;3.40;;;21.50;52.30;;;;;;5093934;28;20848;-68
2021/01/03 04:59:08;;;;;;;4.60;3.77;;;21.40;52.20;;;;;;5082812;28;20305;-68
2021/01/03 05:02:15;;;;;;;3.87;3.47;;;21.50;52.30;;;;;;5094110;28;20759;-68
2021/01/03 05:05:01;;;;;;;4.17;3.77;;;21.40;52.30;;;;;;5093941;28;20975;-68
2021/01/03 05:07:34;;;;;;;3.83;3.53;;;21.40;52.30;;;;;;5093989;28;20921;-68
2021/01/03 05:10:18;;;;;;;4.17;3.80;;;21.40;52.40;;;;;;5093580;28;20424;-68
2021/01/03 05:12:52;;;;;;;4.50;4.10;;;21.40;52.30;;;;;;5093602;28;20466;-68
2021/01/03 05:15:27;;;;;;;4.30;3.97;;;21.40;52.40;;;;;;5093919;28;20525;-68
2021/01/03 05:17:54;;;;;;;3.97;3.53;;;21.40;52.40;;;;;;5093446;28;20466;-68
2021/01/03 05:20:20;;;;;;;4.00;3.60;;;21.40;52.40;;;;;;5094033;28;20412;-67
2021/01/03 05:22:46;;;;;;;3.40;3.10;;;21.40;52.30;;;;;;5093671;28;20510;-67
2021/01/03 05:25:17;;;;;;;3.70;3.40;;;21.40;52.40;;;;;;5093449;28;20440;-68
2021/01/03 05:27:43;;;;;;;4.10;3.80;;;21.40;52.40;;;;;;5093460;28;20202;-68
2021/01/03 05:30:14;;;;;;;4.43;4.03;;;21.40;52.40;;;;;;5093350;28;20453;-68
2021/01/03 05:32:39;;;;;;;3.30;3.07;;;21.40;52.40;;;;;;5093383;28;20425;-68
2021/01/03 05:35:27;;;;;;;3.73;3.43;;;21.40;52.40;;;;;;5093348;28;20525;-68
2021/01/03 05:37:56;;;;;;;3.90;3.60;;;21.40;52.30;;;;;;5093115;28;20216;-68
2021/01/03 05:40:30;;;;;;;4.07;3.27;;;21.40;52.40;;;;;;5093247;28;20407;-68
2021/01/03 05:43:15;;;;;;;3.87;3.47;;;21.40;52.40;;;;;;5091841;28;20411;-68
2021/01/03 05:45:54;;;;;;;3.80;3.50;;;21.40;52.40;;;;;;5093221;28;20388;-67
2021/01/03 05:48:24;;;;;;;3.50;3.20;;;21.40;52.40;;;;;;5093415;28;20435;-68
2021/01/03 05:50:49;;;;;;;3.90;3.50;;;21.40;52.40;;;;;;5093122;28;20759;-68
2021/01/03 05:53:22;;;;;;;3.30;3.00;;;21.40;52.40;;;;;;5093074;28;20415;-68
2021/01/03 05:56:03;;;;;;;4.13;3.73;;;21.40;52.40;;;;;;5093436;28;20182;-68
2021/01/03 05:58:44;;;;;;;3.67;3.20;;;21.40;52.40;;;;;;5092906;28;20457;-68
2021/01/03 06:01:17;;;;;;;3.47;3.17;;;21.40;52.40;;;;;;5093624;28;20391;-68
2021/01/03 06:03:43;;;;;;;3.17;2.97;;;21.40;52.50;;;;;;5093410;28;20450;-68
2021/01/03 06:06:19;;;;;;;3.50;3.20;;;21.40;52.50;;;;;;5092914;28;20439;-68
2021/01/03 06:08:47;;;;;;;3.60;3.30;;;21.50;52.50;;;;;;5092892;28;20162;-69
2021/01/03 06:11:19;;;;;;;3.63;3.33;;;21.50;52.60;;;;;;5093235;28;20396;-68
2021/01/03 06:13:54;;;;;;;3.27;2.97;;;21.50;52.50;;;;;;5093159;28;20926;-67
2021/01/03 06:16:29;;;;;;;3.33;3.10;;;21.50;52.50;;;;;;5092841;28;20411;-68
2021/01/03 06:19:32;;;;;;;4.00;3.70;;;21.50;52.60;;;;;;5093035;28;20457;-68
2021/01/03 06:21:58;;;;;;;4.47;3.40;;;21.50;52.50;;;;;;5093240;28;20481;-67
2021/01/03 06:24:26;;;;;;;4.07;3.73;;;21.50;52.60;;;;;;5095543;28;20819;-67
2021/01/03 06:26:56;;;;;;;3.77;3.33;;;21.50;52.60;;;;;;5096736;28;20198;-67
2021/01/03 06:29:33;;;;;;;3.67;3.37;;;21.50;52.50;;;;;;5095436;28;20423;-67
2021/01/03 06:32:23;;;;;;;3.07;2.80;;;21.50;52.50;;;;;;5096748;28;20411;-68
2021/01/03 06:35:26;;;;;;;3.53;3.23;;;21.50;52.50;;;;;;5096961;28;20441;-68
2021/01/03 06:37:57;;;;;;;3.30;3.00;;;21.50;52.50;;;;;;5096476;28;20865;-68
2021/01/03 06:40:27;;;;;;;3.50;3.20;;;21.50;52.60;;;;;;5096552;28;20412;-68
2021/01/03 06:43:09;;;;;;;3.00;2.80;;;21.50;52.50;;;;;;5096338;28;20402;-67
2021/01/03 06:46:05;;;;;;;2.77;2.57;;;21.50;52.50;;;;;;5096735;28;20950;-68
2021/01/03 06:48:49;;;;;;;3.67;3.37;;;21.50;52.50;;;;;;5096673;28;20420;-68
2021/01/03 06:51:45;;;;;;;3.43;3.17;;;21.50;52.50;;;;;;5096369;28;20770;-67
2021/01/03 06:54:41;;;;;;;3.40;3.20;;;21.50;52.50;;;;;;5096856;28;20403;-68
2021/01/03 06:57:12;;;;;;;3.50;3.20;;;21.50;52.50;;;;;;5096327;28;20468;-68
2021/01/03 06:59:46;;;;;;;3.20;2.90;;;21.50;52.50;;;;;;5096403;28;20538;-68
2021/01/03 07:02:16;;;;;;;3.57;3.27;;;21.40;52.50;;;;;;5096453;28;20423;-67
2021/01/03 07:04:42;;;;;;;3.10;2.80;;;21.50;53.10;;;;;;5096026;28;20898;-68
2021/01/03 07:07:37;;;;;;;3.07;2.87;;;21.50;52.50;;;;;;5096023;28;20472;-68
2021/01/03 07:10:09;;;;;;;3.70;3.40;;;21.50;52.50;;;;;;5094003;28;20443;-68
2021/01/03 07:12:47;;;;;;;3.53;3.23;;;21.50;52.50;;;;;;5095967;28;20974;-67
2021/01/03 07:15:22;;;;;;;3.80;3.50;;;21.50;53.10;;;;;;5096111;28;20392;-68
2021/01/03 07:18:09;;;;;;;3.03;2.73;;;21.50;52.50;;;;;;5095936;28;20458;-68
2021/01/03 07:20:50;;;;;;;3.40;3.10;;;21.50;53.10;;;;;;5096127;28;20398;-67
2021/01/03 07:23:38;;;;;;;3.47;3.00;;;21.50;52.50;;;;;;5096067;28;20384;-68
2021/01/03 07:26:27;;;;;;;3.20;2.90;;;21.50;52.50;;;;;;5095708;28;20391;-68
2021/01/03 07:29:06;;;;;;;3.00;2.73;;;21.50;52.50;;;;;;5095766;28;20802;-68
2021/01/03 07:32:01;;;;;;;3.90;3.03;;;21.50;52.50;;;;;;5095931;28;20479;-67
2021/01/03 07:34:30;;;;;;;3.30;3.00;;;21.50;52.50;;;;;;5093634;28;20910;-68
2021/01/03 07:37:18;;;;;;;3.10;2.63;;;21.50;52.50;;;;;;5095695;28;20854;-67
2021/01/03 07:40:08;;;;;;;5.23;2.70;;;21.50;52.40;;;;;;5095158;28;20418;-67
2021/01/03 07:42:45;;;;;;;3.57;3.27;;;21.50;52.40;;;;;;5095386;28;20392;-68
2021/01/03 07:45:14;;;;;;;3.47;3.17;;;21.50;52.30;;;;;;5095547;28;20445;-68
2021/01/03 07:47:49;;;;;;;3.20;2.90;;;21.50;52.20;;;;;;5095247;28;20960;-67
2021/01/03 07:50:30;;;;;;;3.03;2.80;;;21.50;52.20;;;;;;5095245;28;20770;-68
2021/01/03 07:52:59;;;;;;;3.40;3.10;;;21.60;52.30;;;;;;5095482;28;20433;-68
2021/01/03 07:55:24;;;;;;;3.33;2.97;;;21.50;52.80;;;;;;5095909;28;20411;-67
2021/01/03 07:58:05;;;;;;;3.13;2.83;;;21.50;52.20;;;;;;5094894;28;20849;-68
2021/01/03 08:00:36;;;;;;;3.50;3.20;;;21.60;52.30;;;;;;5095131;28;20154;-67
2021/01/03 08:03:08;;;;;;;3.47;2.93;;;21.60;52.30;;;;;;5094946;28;20400;-67
2021/01/03 08:05:35;;;;;;;2.93;2.60;;;21.60;52.20;;;;;;5094896;28;20404;-68
2021/01/03 08:08:02;;;;;;;3.30;3.00;;;21.50;52.10;;;;;;5095063;28;20444;-68
2021/01/03 08:10:28;;;;;;;2.80;2.57;;;21.50;52.10;;;;;;5095032;28;20424;-67
2021/01/03 08:13:04;;;;;;;3.47;3.17;;;21.50;52.00;;;;;;5094757;28;20423;-67
2021/01/03 08:15:32;;;;;;;3.43;3.10;;;21.60;52.00;;;;;;5094783;28;20403;-68
2021/01/03 08:18:11;;;;;;;3.50;2.87;;;21.50;51.90;;;;;;5093303;28;20494;-67
2021/01/03 08:20:36;;;;;;;3.37;3.07;;;21.60;52.00;;;;;;5094919;28;20403;-67
2021/01/03 08:23:26;;;;;;;3.40;3.10;;;21.50;51.90;;;;;;5094905;28;20407;-67
2021/01/03 08:26:15;;;;;;;2.70;2.50;;;21.50;51.90;;;;;;5094538;28;20154;-68
2021/01/03 08:29:10;;;;;;;3.17;2.73;;;21.50;51.90;;;;;;5094755;28;20388;-67
2021/01/03 08:31:50;;;;;;;3.73;3.13;;;21.50;51.90;;;;;;5072064;28;20502;-67
2021/01/03 08:34:29;;;;;;;3.50;3.20;;;21.50;51.90;;;;;;5094385;28;20392;-67
2021/01/03 08:36:55;;;;;;;3.80;3.40;;;21.50;51.80;;;;;;5094521;28;20430;-67
2021/01/03 08:39:25;;;;;;;4.43;3.67;;;21.50;51.80;;;;;;5092949;28;20446;-67
2021/01/03 08:42:01;;;;;;;3.77;3.47;;;21.50;51.70;;;;;;5094109;28;20447;-67
2021/01/03 08:44:33;;;;;;;3.30;3.00;;;21.50;51.70;;;;;;5092597;28;20408;-68
2021/01/03 08:47:40;;;;;;;4.10;3.33;;;21.40;51.50;;;;;;5094513;28;20794;-67
2021/01/03 08:50:16;;;;;;;3.67;3.37;;;21.50;51.60;;;;;;5077219;28;20411;-67
2021/01/03 08:52:42;;;;;;;4.03;3.67;;;21.50;51.50;;;;;;5093990;28;20901;-66
2021/01/03 08:55:14;;;;;;;8.00;3.23;;;21.40;51.50;;;;;;5093985;28;20488;-68
2021/01/03 08:57:43;;;;;;;4.03;3.57;;;21.40;51.40;;;;;;5094023;28;20200;-68
2021/01/03 09:00:19;;;;;;;3.50;3.20;;;21.40;51.40;;;;;;5094196;28;20419;-67
2021/01/03 09:02:47;;;;;;;3.47;3.10;;;21.50;51.50;;;;;;5093688;28;20407;-67
2021/01/03 09:05:17;;;;;;;3.93;3.53;;;21.50;51.40;;;;;;5094098;28;20421;-67
2021/01/03 09:07:44;;;;;;;3.43;3.13;;;21.50;51.40;;;;;;5093993;28;20416;-67
2021/01/03 09:10:19;;;;;;;3.47;2.97;;;21.50;51.40;;;;;;5093891;28;20435;-67
2021/01/03 09:12:45;;;;;;;4.90;3.83;;;21.50;51.40;;;;;;5093942;28;20406;-67
2021/01/03 09:15:21;;;;;;;3.60;3.00;;;21.50;51.40;;;;;;5092111;28;20491;-67
2021/01/03 09:18:04;;;;;;;4.27;3.50;;;21.50;51.90;;;;;;5093646;28;20558;-67
2021/01/03 09:20:42;;;;;;;3.73;3.30;;;21.50;51.30;;;;;;5093524;28;20392;-67
2021/01/03 09:23:15;;;;;;;3.53;3.20;;;21.50;51.30;;;;;;5094031;28;20715;-67
2021/01/03 09:25:41;;;;;;;3.70;3.30;;;21.50;51.30;;;;;;5093575;28;20804;-67
2021/01/03 09:28:31;;;;;;;4.40;3.40;;;21.50;51.20;;;;;;5093500;28;20424;-67
2021/01/03 09:31:12;;;;;;;4.13;3.60;;;21.50;51.20;;;;;;5093650;28;20428;-67
2021/01/03 09:33:39;;;;;;;3.37;3.07;;;21.50;51.10;;;;;;5093341;28;20430;-68
2021/01/03 09:36:27;;;;;;;3.70;3.03;;;21.50;51.10;;;;;;5093597;28;20990;-68
2021/01/03 09:39:20;;;;;;;3.40;3.00;;;21.50;51.10;;;;;;5093228;28;20474;-67
2021/01/03 09:42:00;;;;;;;4.00;2.90;;;21.50;51.10;;;;;;5093775;28;20526;-68
2021/01/03 09:44:44;;;;;;;4.90;3.23;;;21.50;51.10;;;;;;5093507;28;20455;-67
2021/01/03 09:47:13;;;;;;;3.87;3.17;;;21.50;51.10;;;;;;5093252;28;20442;-67
2021/01/03 09:49:41;;;;;;;3.60;2.90;;;21.50;51.20;;;;;;5093411;28;20412;-67
2021/01/03 09:52:32;;;;;;;3.97;3.03;;;21.50;51.20;;;;;;5093114;28;20909;-67
2021/01/03 09:55:09;;;;;;;3.70;2.87;;;21.50;51.20;;;;;;5093068;28;20400;-68
2021/01/03 09:57:53;;;;;;;6.70;3.53;;;21.50;51.30;;;;;;5092947;28;20427;-68
2021/01/03 10:00:25;;;;;;;3.03;2.73;;;21.50;51.20;;;;;;5093117;28;20390;-67
2021/01/03 10:02:52;;;;;;;5.57;3.57;;;21.50;51.20;;;;;;5093022;28;20399;-67
2021/01/03 10:05:27;;;;;;;4.47;3.30;;;21.50;51.20;;;;;;5093213;28;20400;-67
2021/01/03 10:08:04;;;;;;;3.70;3.40;;;21.50;51.20;;;;;;5093012;28;20842;-67
2021/01/03 10:11:02;;;;;;;3.20;2.90;;;21.50;51.20;;;;;;5092783;28;20427;-67
2021/01/03 10:13:30;;;;;;;4.17;3.23;;;21.50;51.20;;;;;;5058982;28;20455;-67
2021/01/03 10:15:56;;;;;;;4.13;3.57;;;21.50;51.20;;;;;;5092971;28;20416;-67
2021/01/03 10:18:34;;;;;;;3.80;3.27;;;21.50;51.20;;;;;;5092710;28;20491;-68
2021/01/03 10:21:16;;;;;;;3.23;2.93;;;21.50;51.20;;;;;;5093172;28;20403;-66
2021/01/03 10:23:44;;;;;;;3.23;2.93;;;21.50;51.20;;;;;;5092912;28;20400;-67
2021/01/03 10:26:33;;;;;;;3.80;3.33;;;21.50;51.20;;;;;;5092972;28;20549;-67
2021/01/03 10:28:59;;;;;;;4.27;3.20;;;21.60;51.30;;;;;;5092816;28;20441;-67
2021/01/03 10:31:40;;;;;;;4.03;3.63;;;21.50;51.20;;;;;;5093361;28;20395;-68
2021/01/03 10:34:05;;;;;;;3.97;3.40;;;21.50;51.20;;;;;;5092714;28;20388;-67
2021/01/03 10:36:31;;;;;;;3.70;3.30;;;21.60;51.30;;;;;;5091541;28;20447;-67
2021/01/03 10:38:56;;;;;;;3.40;3.10;;;21.60;51.30;;;;;;5092602;28;20208;-67
2021/01/03 10:41:29;;;;;;;4.90;3.90;;;21.60;51.30;;;;;;5092893;28;20197;-67
2021/01/03 10:43:55;;;;;;;3.43;3.03;;;21.60;51.30;;;;;;5092989;28;20154;-67
2021/01/03 10:46:21;;;;;;;3.13;2.83;;;21.60;51.30;;;;;;5092490;28;20411;-67
2021/01/03 10:48:46;;;;;;;3.40;3.03;;;21.60;51.30;;;;;;5092621;28;20644;-67
2021/01/03 10:51:12;;;;;;;3.10;2.80;;;21.60;51.20;;;;;;5092552;28;20174;-67
2021/01/03 10:53:38;;;;;;;3.50;3.20;;;21.60;51.30;;;;;;5092541;28;20231;-67
2021/01/03 10:56:03;;;;;;;3.87;3.57;;;21.60;51.30;;;;;;5092768;28;20182;-67
2021/01/03 10:58:29;;;;;;;4.70;3.13;;;21.60;51.30;;;;;;5092314;28;20206;-68
2021/01/03 11:00:55;;;;;;;3.70;3.40;;;21.60;51.30;;;;;;5092556;28;20158;-67
2021/01/03 11:03:20;;;;;;;3.30;3.07;;;21.70;51.30;;;;;;5092759;28;20178;-68
2021/01/03 11:05:46;;;;;;;4.50;3.50;;;21.70;51.30;;;;;;5092728;28;20722;-67
2021/01/03 11:08:11;;;;;;;5.30;3.50;;;21.60;51.20;;;;;;5094661;28;20189;-68
2021/01/03 11:10:37;;;;;;;4.90;3.80;;;21.70;51.30;;;;;;5095884;28;20243;-68
2021/01/03 11:13:02;;;;;;;5.80;3.47;;;21.70;51.20;;;;;;5095886;28;20173;-67
2021/01/03 11:15:28;;;;;;;3.43;3.10;;;21.70;51.20;;;;;;5095927;28;20701;-68
2021/01/03 11:17:54;;;;;;;3.90;3.27;;;21.70;51.20;;;;;;5095711;28;20198;-67
2021/01/03 11:20:21;;;;;;;4.10;3.70;;;21.70;51.20;;;;;;5095777;28;20197;-67
2021/01/03 11:22:47;;;;;;;4.23;3.53;;;21.70;51.20;;;;;;5095770;28;20185;-67
2021/01/03 11:25:14;;;;;;;3.67;3.20;;;21.60;51.20;;;;;;5095743;28;20404;-67
2021/01/03 11:27:40;;;;;;;3.73;3.07;;;21.60;51.20;;;;;;5095889;28;20477;-67
2021/01/03 11:30:07;;;;;;;3.20;2.90;;;21.70;51.30;;;;;;5095586;28;20415;-67
2021/01/03 11:32:33;;;;;;;5.50;3.10;;;21.70;51.30;;;;;;5095486;28;20169;-67
2021/01/03 11:34:59;;;;;;;3.93;3.53;;;21.60;51.20;;;;;;5094300;28;20926;-67
2021/01/03 11:37:27;;;;;;;3.07;2.77;;;21.70;51.20;;;;;;5096001;28;20683;-68
2021/01/03 11:39:53;;;;;;;4.93;3.20;;;21.70;51.20;;;;;;5095701;28;20747;-68
2021/01/03 11:42:34;;;;;;;4.87;3.37;;;21.60;51.20;;;;;;5095641;28;20408;-67
2021/01/03 11:45:00;;;;;;;5.27;4.07;;;21.60;51.20;;;;;;5095287;28;20431;-68
2021/01/03 11:47:28;;;;;;;3.70;3.30;;;21.60;51.20;;;;;;5095265;28;20481;-68
2021/01/03 11:49:54;;;;;;;3.57;3.27;;;21.60;51.20;;;;;;5095426;28;20420;-66
2021/01/03 11:52:20;;;;;;;4.23;3.10;;;21.70;51.30;;;;;;5095149;28;20400;-67
2021/01/03 11:54:45;;;;;;;3.90;3.57;;;21.60;51.30;;;;;;5095221;28;20636;-67
2021/01/03 11:57:11;;;;;;;4.07;3.37;;;21.60;51.30;;;;;;5094977;28;20235;-68
2021/01/03 11:59:36;;;;;;;3.70;3.40;;;21.60;51.20;;;;;;5094901;28;20197;-67
2021/01/03 12:02:10;;;;;;;5.73;4.40;;;21.60;51.20;;;;;;5094956;28;20181;-68
2021/01/03 12:04:40;;;;;;;4.03;3.47;;;21.60;51.10;;;;;;5094982;28;20520;-67
2021/01/03 12:07:12;;;;;;;3.60;3.30;;;21.60;51.00;;;;;;5094831;28;20467;-68
2021/01/03 12:09:37;;;;;;;4.27;3.77;;;21.60;51.00;;;;;;5094745;28;20442;-67
2021/01/03 12:12:07;;;;;;;4.07;3.40;;;21.60;50.90;;;;;;5095057;28;20894;-67
2021/01/03 12:14:33;;;;;;;5.03;4.13;;;21.60;50.80;;;;;;5094780;28;20184;-67
2021/01/03 12:17:03;;;;;;;4.93;4.20;;;21.60;50.90;;;;;;5094664;28;20432;-67
2021/01/03 12:19:29;;;;;;;4.10;3.50;;;21.60;50.90;;;;;;5093843;28;20451;-68
2021/01/03 12:21:59;;;;;;;3.70;3.40;;;21.60;50.90;;;;;;5094618;28;20412;-68
2021/01/03 12:24:25;;;;;;;5.30;3.60;;;21.60;51.00;;;;;;5093290;28;20451;-67
2021/01/03 12:26:51;;;;;;;4.03;3.50;;;21.60;51.00;;;;;;5095021;28;20456;-67
2021/01/03 12:29:18;;;;;;;4.90;3.50;;;21.60;51.00;;;;;;5094526;28;20860;-67
2021/01/03 12:31:48;;;;;;;5.57;3.70;;;21.60;50.90;;;;;;5094590;28;20181;-67
2021/01/03 12:34:15;;;;;;;4.47;3.93;;;21.60;51.00;;;;;;5094704;28;20447;-67
2021/01/03 12:36:41;;;;;;;3.87;3.47;;;21.60;51.00;;;;;;5094284;28;20987;-67
2021/01/03 12:39:08;;;;;;;4.90;3.67;;;21.60;51.00;;;;;;5094504;28;20431;-67
2021/01/03 12:41:35;;;;;;;4.40;3.87;;;21.60;51.50;;;;;;5094086;28;20675;-67
2021/01/03 12:44:01;;;;;;;4.80;3.47;;;21.60;50.90;;;;;;5094228;28;20392;-66
2021/01/03 12:46:30;;;;;;;4.80;3.73;;;21.60;50.80;;;;;;5094143;28;20510;-67
2021/01/03 12:48:56;;;;;;;6.93;3.93;;;21.60;50.80;;;;;;5094380;28;20427;-67
2021/01/03 12:51:22;;;;;;;5.20;3.60;;;21.70;50.90;;;;;;5094281;28;20806;-67
2021/01/03 12:53:48;;;;;;;6.10;3.77;;;21.70;51.00;;;;;;5093963;28;20177;-67
2021/01/03 12:56:14;;;;;;;4.50;3.70;;;21.60;51.00;;;;;;5093913;28;20446;-66
2021/01/03 12:58:39;;;;;;;4.43;3.20;;;21.60;51.00;;;;;;5094049;28;20293;-66
2021/01/03 13:01:05;;;;;;;4.30;3.10;;;21.70;51.10;;;;;;5094029;28;20969;-66
2021/01/03 13:03:31;;;;;;;3.70;3.30;;;21.70;51.10;;;;;;5093834;28;20260;-67
2021/01/03 13:05:56;;;;;;;7.83;4.10;;;21.60;51.00;;;;;;5093733;28;20177;-69
2021/01/03 13:08:22;;;;;;;6.47;3.27;;;21.60;51.10;;;;;;5094023;28;20205;-68
2021/01/03 13:10:48;;;;;;;5.83;4.07;;;21.60;51.10;;;;;;5094085;28;20186;-67